Time;durP1;ratioP1;P1;durP2;ratioP2;P2;SDS_P1;SDS_P2;PMS_P1;PMS_P2;Temp;Humidity;BMP_temperature;BMP_pressure;BME280_temperature;BME280_humidity;BME280_pressure;Samples;Min_cycle;Max_cycle;Signal;HPM_P1;HPM_P2
2021/11/08 00:02:03;;;;;;;29.67;16.85;;;5.00;99.90;;;;;;5092145;28;20023;-73
2021/11/08 00:04:31;;;;;;;33.75;18.17;;;4.90;99.90;;;;;;5093370;28;20157;-74
2021/11/08 00:06:57;;;;;;;35.50;17.73;;;4.90;99.90;;;;;;5092403;28;20035;-74
2021/11/08 00:09:23;;;;;;;33.78;17.30;;;4.90;99.90;;;;;;5085868;28;20028;-74
2021/11/08 00:11:48;;;;;;;31.08;17.52;;;4.80;99.90;;;;;;5071814;28;20029;-74
2021/11/08 00:14:18;;;;;;;33.53;17.52;;;4.80;99.90;;;;;;5073027;28;20035;-74
2021/11/08 00:21:46;;;;;;;38.63;19.80;;;4.60;99.90;;;;;;5072988;28;20033;-73
2021/11/08 00:24:14;;;;;;;35.65;19.02;;;4.60;99.90;;;;;;5072989;28;20034;-74
2021/11/08 00:26:39;;;;;;;31.02;17.65;;;4.60;99.90;;;;;;5072702;28;20090;-74
2021/11/08 00:29:05;;;;;;;31.27;18.45;;;4.50;99.90;;;;;;5072809;28;20466;-74
2021/11/08 00:31:31;;;;;;;34.78;19.65;;;4.50;99.90;;;;;;5072812;28;20100;-73
2021/11/08 00:33:58;;;;;;;34.83;18.48;;;4.50;99.90;;;;;;5072811;28;20449;-74
2021/11/08 00:36:24;;;;;;;34.10;18.17;;;4.50;99.90;;;;;;5072697;28;20023;-74
2021/11/08 00:38:50;;;;;;;35.13;18.65;;;4.40;99.90;;;;;;5072808;28;20024;-74
2021/11/08 00:41:16;;;;;;;33.22;20.90;;;4.40;99.90;;;;;;5072756;28;20016;-74
2021/11/08 00:43:42;;;;;;;37.40;22.02;;;4.40;99.90;;;;;;5072734;28;20036;-73
2021/11/08 00:46:08;;;;;;;42.97;23.23;;;4.40;99.90;;;;;;5071451;28;20059;-74
2021/11/08 00:48:36;;;;;;;47.05;28.95;;;4.40;99.90;;;;;;5072529;28;20115;-74
2021/11/08 00:51:03;;;;;;;42.35;24.38;;;4.30;99.90;;;;;;5072639;28;20033;-73
2021/11/08 00:53:31;;;;;;;47.75;26.73;;;4.30;99.90;;;;;;5072662;28;20021;-74
2021/11/08 00:55:58;;;;;;;54.58;30.98;;;4.30;99.90;;;;;;5072550;28;20028;-74
2021/11/08 00:58:34;;;;;;;69.60;40.90;;;4.20;99.90;;;;;;5072586;28;20146;-73
2021/11/08 01:01:06;;;;;;;47.42;26.67;;;4.20;99.90;;;;;;5072566;28;20020;-73
2021/11/08 01:03:34;;;;;;;45.78;26.73;;;4.20;99.90;;;;;;5072598;28;20024;-74
2021/11/08 01:06:00;;;;;;;37.95;23.33;;;4.20;99.90;;;;;;5072816;28;20024;-74
2021/11/08 01:08:26;;;;;;;45.35;25.25;;;4.20;99.90;;;;;;5072343;28;20024;-74
2021/11/08 01:10:53;;;;;;;44.45;22.85;;;4.20;99.90;;;;;;5072476;28;20545;-74
2021/11/08 01:13:19;;;;;;;37.65;20.50;;;4.10;99.90;;;;;;5072480;28;20389;-74
2021/11/08 01:15:44;;;;;;;40.90;22.00;;;4.20;99.90;;;;;;5071090;28;20020;-74
2021/11/08 01:18:11;;;;;;;41.10;21.98;;;4.10;99.90;;;;;;5073141;28;20467;-74
2021/11/08 01:20:44;;;;;;;45.13;23.70;;;4.10;99.90;;;;;;5076389;28;20032;-73
2021/11/08 01:23:12;;;;;;;37.72;21.38;;;4.10;99.90;;;;;;5076293;28;20016;-73
2021/11/08 01:25:38;;;;;;;34.50;20.60;;;4.10;99.90;;;;;;5076002;28;20020;-74
2021/11/08 01:28:05;;;;;;;41.70;22.30;;;4.10;99.90;;;;;;5074733;28;20093;-73
2021/11/08 01:30:31;;;;;;;41.38;22.88;;;4.10;99.90;;;;;;5074663;28;20035;-73
2021/11/08 01:33:10;;;;;;;39.20;22.70;;;4.10;99.90;;;;;;5075955;28;20013;-74
2021/11/08 01:35:58;;;;;;;42.22;24.40;;;4.10;99.90;;;;;;5074571;28;20028;-74
2021/11/08 01:38:25;;;;;;;41.30;23.45;;;4.10;99.90;;;;;;5075650;28;20039;-74
2021/11/08 01:40:52;;;;;;;44.85;24.23;;;4.10;99.90;;;;;;5075781;28;20024;-74
2021/11/08 01:43:20;;;;;;;45.97;24.08;;;4.10;99.90;;;;;;5075847;28;20020;-74
2021/11/08 01:45:46;;;;;;;45.80;22.48;;;4.10;99.90;;;;;;5075720;28;20020;-74
2021/11/08 01:48:13;;;;;;;43.35;22.52;;;4.00;99.90;;;;;;5074368;28;20110;-74
2021/11/08 01:50:40;;;;;;;39.70;23.00;;;4.00;99.90;;;;;;5075529;28;20099;-73
2021/11/08 01:53:06;;;;;;;43.90;24.23;;;4.00;99.90;;;;;;5075645;28;20142;-73
2021/11/08 01:55:33;;;;;;;52.75;25.67;;;3.90;99.90;;;;;;5074230;28;20064;-74
2021/11/08 01:57:59;;;;;;;46.05;25.50;;;3.80;99.90;;;;;;5074249;28;20017;-74
2021/11/08 02:00:26;;;;;;;44.83;24.33;;;3.80;99.90;;;;;;5074187;28;20028;-74
2021/11/08 02:02:52;;;;;;;39.55;22.50;;;3.80;99.90;;;;;;5075416;28;20059;-74
2021/11/08 02:05:18;;;;;;;39.35;23.40;;;3.80;99.90;;;;;;5075304;28;20056;-73
2021/11/08 02:07:45;;;;;;;40.65;21.80;;;3.80;99.90;;;;;;5073981;28;20474;-74
2021/11/08 02:10:14;;;;;;;44.00;23.45;;;3.80;99.90;;;;;;5073926;28;20039;-73
2021/11/08 02:12:40;;;;;;;43.90;21.80;;;3.70;99.90;;;;;;5073942;28;20116;-74
2021/11/08 02:15:08;;;;;;;54.22;29.75;;;3.70;99.90;;;;;;5073895;28;20025;-74
2021/11/08 02:17:34;;;;;;;45.40;25.88;;;3.80;99.90;;;;;;5075114;28;20016;-74
2021/11/08 02:20:23;;;;;;;47.85;28.10;;;3.80;99.90;;;;;;5075055;28;20508;-73
2021/11/08 02:22:50;;;;;;;54.67;31.05;;;3.80;99.90;;;;;;5075130;28;20107;-73
2021/11/08 02:25:18;;;;;;;57.83;31.08;;;3.80;99.90;;;;;;5073719;28;20024;-73
2021/11/08 02:27:44;;;;;;;55.03;30.35;;;3.80;99.90;;;;;;5074857;28;20063;-73
2021/11/08 02:30:11;;;;;;;51.55;27.20;;;3.80;99.90;;;;;;5073907;28;20025;-74
2021/11/08 02:32:37;;;;;;;48.47;25.20;;;3.80;99.90;;;;;;5074875;28;20044;-73
2021/11/08 02:35:07;;;;;;;45.17;23.88;;;3.80;99.90;;;;;;5074829;28;20119;-74
2021/11/08 02:37:33;;;;;;;44.00;24.33;;;3.80;99.90;;;;;;5074718;28;20074;-74
2021/11/08 02:40:01;;;;;;;44.90;23.02;;;3.90;99.90;;;;;;5074724;28;20028;-73
2021/11/08 02:42:27;;;;;;;44.03;24.80;;;3.90;99.90;;;;;;5074628;28;20050;-74
2021/11/08 02:44:54;;;;;;;39.55;22.23;;;3.90;99.90;;;;;;5074619;28;20482;-73
2021/11/08 02:47:21;;;;;;;41.92;23.75;;;3.90;99.90;;;;;;5091238;28;20035;-74
2021/11/08 02:49:49;;;;;;;45.30;25.27;;;3.90;99.90;;;;;;5093418;28;20117;-73
2021/11/08 02:52:19;;;;;;;51.72;28.63;;;3.90;99.90;;;;;;5093520;28;20020;-73
2021/11/08 02:54:48;;;;;;;43.08;23.83;;;3.90;99.90;;;;;;5094893;28;20028;-74
2021/11/08 02:57:14;;;;;;;43.00;21.92;;;3.90;99.90;;;;;;5093409;28;20520;-73
2021/11/08 02:59:40;;;;;;;34.47;20.45;;;3.90;99.90;;;;;;5094560;28;20126;-73
2021/11/08 03:02:08;;;;;;;54.88;31.25;;;3.80;99.90;;;;;;5094539;28;20087;-73
2021/11/08 03:04:39;;;;;;;60.95;36.58;;;3.70;99.90;;;;;;5093143;28;20016;-74
2021/11/08 03:07:05;;;;;;;58.47;32.90;;;3.70;99.90;;;;;;5094481;28;20036;-74
2021/11/08 03:09:35;;;;;;;41.15;24.10;;;3.60;99.90;;;;;;5094189;28;20032;-74
2021/11/08 03:12:08;;;;;;;55.60;33.80;;;3.60;99.90;;;;;;5094493;28;20020;-74
2021/11/08 03:14:37;;;;;;;45.33;25.48;;;3.60;99.90;;;;;;5094357;28;20024;-74
2021/11/08 03:17:03;;;;;;;39.85;24.35;;;3.50;99.90;;;;;;5094265;28;20104;-74
2021/11/08 03:19:35;;;;;;;43.35;24.35;;;3.50;99.90;;;;;;5083620;28;20077;-74
2021/11/08 03:22:07;;;;;;;43.95;23.83;;;3.50;99.90;;;;;;5093890;28;20504;-74
2021/11/08 03:27:07;;;;;;;38.58;21.65;;;3.60;99.90;;;;;;5094408;28;20040;-74
2021/11/08 03:29:33;;;;;;;43.90;23.50;;;3.60;99.90;;;;;;5092728;28;20107;-73
2021/11/08 03:32:00;;;;;;;42.20;23.33;;;3.60;99.90;;;;;;5093971;28;20107;-73
2021/11/08 03:34:28;;;;;;;39.60;21.00;;;3.70;99.90;;;;;;5084389;28;20024;-73
2021/11/08 03:36:54;;;;;;;47.58;24.40;;;3.70;99.90;;;;;;5073671;28;20024;-73
2021/11/08 03:39:20;;;;;;;43.13;24.20;;;3.70;99.90;;;;;;5073494;28;20394;-73
2021/11/08 03:41:46;;;;;;;41.60;25.25;;;3.80;99.90;;;;;;5073336;28;20024;-73
2021/11/08 03:44:11;;;;;;;43.63;25.17;;;3.80;99.90;;;;;;5072215;28;20056;-74
2021/11/08 03:46:38;;;;;;;39.75;22.58;;;3.80;99.90;;;;;;5073309;28;20033;-74
2021/11/08 03:49:03;;;;;;;40.47;22.63;;;3.80;99.90;;;;;;5073490;28;20395;-73
2021/11/08 03:51:29;;;;;;;43.45;22.63;;;3.80;99.90;;;;;;5073402;28;20035;-74
2021/11/08 03:53:55;;;;;;;38.55;23.25;;;3.80;99.90;;;;;;5073267;28;20025;-73
2021/11/08 03:56:21;;;;;;;42.38;24.25;;;3.80;99.90;;;;;;5071945;28;20119;-73
2021/11/08 03:58:46;;;;;;;43.90;25.50;;;3.80;99.90;;;;;;5086084;28;20106;-73
2021/11/08 04:01:12;;;;;;;47.55;23.20;;;3.70;99.90;;;;;;5093466;28;20024;-73
2021/11/08 04:03:39;;;;;;;37.60;21.75;;;3.70;99.90;;;;;;5093411;28;20027;-74
2021/11/08 04:06:04;;;;;;;38.42;22.08;;;3.60;99.90;;;;;;5092077;28;20093;-73
2021/11/08 04:08:30;;;;;;;36.60;22.27;;;3.60;99.90;;;;;;5093131;28;20032;-73
2021/11/08 04:10:56;;;;;;;40.47;23.73;;;3.50;99.90;;;;;;5093336;28;20054;-73
2021/11/08 04:13:28;;;;;;;35.95;21.98;;;3.50;99.90;;;;;;5093275;28;20426;-73
2021/11/08 04:15:54;;;;;;;41.20;22.52;;;3.40;99.90;;;;;;5093235;28;20023;-73
2021/11/08 04:18:22;;;;;;;39.92;22.70;;;3.40;99.90;;;;;;5093196;28;20012;-73
2021/11/08 04:20:51;;;;;;;43.63;23.60;;;3.40;99.90;;;;;;5091856;28;20046;-73
2021/11/08 04:23:19;;;;;;;43.45;24.90;;;3.40;99.90;;;;;;5093215;28;20031;-73
2021/11/08 04:25:45;;;;;;;41.10;24.17;;;3.30;99.90;;;;;;5093075;28;20020;-73
2021/11/08 04:28:11;;;;;;;40.60;24.27;;;3.30;99.90;;;;;;5093093;28;20043;-73
2021/11/08 04:30:42;;;;;;;51.10;28.20;;;3.30;99.90;;;;;;5092936;28;20036;-73
2021/11/08 04:33:23;;;;;;;47.70;28.05;;;3.20;99.90;;;;;;5093101;28;20111;-73
2021/11/08 05:32:18;;;;;;;66.10;34.72;;;3.40;99.90;;;;;;5096300;28;20031;-73
2021/11/08 05:34:43;;;;;;;70.38;35.35;;;3.40;99.90;;;;;;5096161;28;20583;-73
2021/11/08 05:37:09;;;;;;;71.90;36.38;;;3.40;99.90;;;;;;5095952;28;20103;-73
2021/11/08 05:39:46;;;;;;;66.20;32.30;;;3.40;99.90;;;;;;5096078;28;20047;-73
2021/11/08 05:42:12;;;;;;;53.38;30.10;;;3.40;99.90;;;;;;5096278;28;20020;-73
2021/11/08 05:44:40;;;;;;;55.55;31.67;;;3.40;99.90;;;;;;5095951;28;20381;-73
2021/11/08 05:47:06;;;;;;;53.35;28.60;;;3.40;99.90;;;;;;5095962;28;20543;-73
2021/11/08 05:49:32;;;;;;;64.93;38.13;;;3.40;99.90;;;;;;5095902;28;20110;-73
2021/11/08 05:51:58;;;;;;;60.20;35.90;;;3.40;99.90;;;;;;5095669;28;20059;-73
2021/11/08 05:54:24;;;;;;;52.83;30.50;;;3.40;99.90;;;;;;5095827;28;20472;-73
2021/11/08 06:51:48;;;;;;;47.88;24.48;;;4.60;99.90;;;;;;5087424;28;20028;-74
2021/11/08 06:54:14;;;;;;;42.22;23.80;;;4.70;99.90;;;;;;5094733;28;20020;-74
2021/11/08 06:59:16;;;;;;;38.33;19.90;;;4.80;99.90;;;;;;5094653;28;20028;-74
2021/11/08 07:01:44;;;;;;;32.05;20.08;;;4.80;99.90;;;;;;5093629;28;20020;-74
2021/11/08 07:04:10;;;;;;;32.53;19.90;;;4.90;99.90;;;;;;5093864;28;20039;-74
2021/11/08 07:06:36;;;;;;;34.08;18.90;;;4.90;99.90;;;;;;5093582;28;20366;-74
2021/11/08 07:09:02;;;;;;;35.45;21.50;;;4.90;99.90;;;;;;5091077;28;20151;-74
2021/11/08 07:11:28;;;;;;;31.25;19.50;;;4.90;99.90;;;;;;5091835;28;20027;-74
2021/11/08 07:13:53;;;;;;;38.72;22.35;;;5.00;99.90;;;;;;5090191;28;20019;-74
2021/11/08 07:16:19;;;;;;;31.17;19.33;;;5.00;99.90;;;;;;5092347;28;20024;-74
2021/11/08 07:18:45;;;;;;;31.63;18.05;;;5.00;99.90;;;;;;5092200;28;20031;-74
2021/11/08 07:21:10;;;;;;;32.20;18.70;;;5.00;99.90;;;;;;5093365;28;20032;-74
2021/11/08 07:23:36;;;;;;;31.80;19.50;;;5.00;99.90;;;;;;5092369;28;20112;-74
2021/11/08 07:26:02;;;;;;;39.10;21.85;;;5.00;99.90;;;;;;5090872;28;20440;-74
2021/11/08 07:28:28;;;;;;;36.78;20.80;;;5.00;99.90;;;;;;5093468;28;20111;-74
2021/11/08 07:30:53;;;;;;;35.83;19.52;;;5.10;99.90;;;;;;5092807;28;20435;-74
2021/11/08 07:33:19;;;;;;;33.42;19.52;;;5.10;99.90;;;;;;5093766;28;20390;-74
2021/11/08 07:35:45;;;;;;;35.15;19.17;;;5.10;99.90;;;;;;5093720;28;20055;-74
2021/11/08 07:38:11;;;;;;;38.65;19.88;;;5.20;99.90;;;;;;5093451;28;20440;-74
2021/11/08 07:40:38;;;;;;;35.15;18.38;;;5.20;99.90;;;;;;5093685;28;20446;-74
2021/11/08 07:43:04;;;;;;;36.85;20.60;;;5.20;99.90;;;;;;5092438;28;20020;-74
2021/11/08 07:45:30;;;;;;;36.67;19.38;;;5.30;99.90;;;;;;5091590;28;20028;-74
2021/11/08 07:47:55;;;;;;;33.38;19.92;;;5.30;99.90;;;;;;5091220;28;20477;-74
2021/11/08 07:50:21;;;;;;;30.83;18.00;;;5.40;99.90;;;;;;5092777;28;20047;-74
2021/11/08 07:52:47;;;;;;;32.33;18.45;;;5.50;99.90;;;;;;5092801;28;20020;-74
2021/11/08 07:55:13;;;;;;;36.17;18.27;;;5.50;99.90;;;;;;5092751;28;20067;-74
2021/11/08 07:57:40;;;;;;;37.78;18.40;;;5.60;99.90;;;;;;5092889;28;20020;-74
2021/11/08 08:00:08;;;;;;;37.90;19.63;;;5.70;99.90;;;;;;5093431;28;20051;-74
2021/11/08 08:02:34;;;;;;;35.35;21.45;;;5.80;99.90;;;;;;5093467;28;20085;-74
2021/11/08 08:04:59;;;;;;;42.83;21.08;;;5.90;99.90;;;;;;5093229;28;20028;-74
2021/11/08 08:07:25;;;;;;;36.58;18.52;;;6.00;99.90;;;;;;5092865;28;20032;-74
2021/11/08 08:09:51;;;;;;;34.53;19.40;;;6.10;99.90;;;;;;5093546;28;20542;-74
2021/11/08 08:12:17;;;;;;;32.03;19.05;;;6.10;99.90;;;;;;5093473;28;20020;-74
2021/11/08 08:14:42;;;;;;;26.27;16.60;;;6.20;99.90;;;;;;5092000;28;20386;-74
2021/11/08 08:17:08;;;;;;;29.75;15.50;;;6.40;99.90;;;;;;5091967;28;20051;-75
2021/11/08 08:19:34;;;;;;;28.55;16.60;;;6.40;99.90;;;;;;5092901;28;20035;-74
2021/11/08 08:22:01;;;;;;;22.10;12.38;;;6.60;99.90;;;;;;5092985;28;20099;-74
2021/11/08 08:24:28;;;;;;;25.63;11.63;;;6.60;99.90;;;;;;5093010;28;20036;-74
2021/11/08 08:26:53;;;;;;;25.50;12.23;;;6.70;99.90;;;;;;5091315;28;20027;-74
2021/11/08 08:29:19;;;;;;;23.70;11.45;;;6.70;99.90;;;;;;5092253;28;20103;-74
2021/11/08 08:31:47;;;;;;;17.38;8.95;;;6.80;99.90;;;;;;5093049;28;20016;-74
2021/11/08 08:34:17;;;;;;;18.98;11.00;;;6.80;99.90;;;;;;5092574;28;20358;-74
2021/11/08 08:36:44;;;;;;;17.88;9.68;;;6.90;99.90;;;;;;5092598;28;20020;-74
2021/11/08 08:39:10;;;;;;;17.45;8.57;;;7.00;99.90;;;;;;5093064;28;20024;-74
2021/11/08 08:41:38;;;;;;;12.68;8.18;;;7.30;99.90;;;;;;5092985;28;20103;-74
2021/11/08 08:44:04;;;;;;;17.08;9.75;;;7.40;99.90;;;;;;5091585;28;20020;-74
2021/11/08 08:46:30;;;;;;;11.43;7.47;;;7.40;99.90;;;;;;5092786;28;20020;-74
2021/11/08 08:48:56;;;;;;;13.25;8.23;;;7.40;99.90;;;;;;5092743;28;20036;-74
2021/11/08 08:51:22;;;;;;;16.95;8.20;;;7.50;99.90;;;;;;5092776;28;20097;-74
2021/11/08 08:53:48;;;;;;;10.63;6.30;;;7.50;99.90;;;;;;5091572;28;20013;-74
2021/11/08 08:56:16;;;;;;;9.77;5.53;;;7.50;99.90;;;;;;5092847;28;20024;-74
2021/11/08 08:58:41;;;;;;;11.65;6.78;;;7.60;99.90;;;;;;5093343;28;20077;-74
2021/11/08 09:01:08;;;;;;;20.13;10.77;;;7.60;99.90;;;;;;5090766;28;20024;-74
2021/11/08 09:03:35;;;;;;;74.80;31.73;;;7.60;99.90;;;;;;5092637;28;20024;-74
2021/11/08 09:06:01;;;;;;;21.92;8.85;;;7.60;99.90;;;;;;5091460;28;20035;-74
2021/11/08 09:08:27;;;;;;;12.38;7.22;;;7.70;99.90;;;;;;5092513;28;20028;-74
2021/11/08 09:10:52;;;;;;;69.43;29.48;;;7.70;99.90;;;;;;5074913;28;20098;-74
2021/11/08 09:13:18;;;;;;;16.75;8.75;;;7.70;99.90;;;;;;5092685;28;20099;-74
2021/11/08 09:15:45;;;;;;;24.63;8.90;;;7.70;99.90;;;;;;5090490;28;20069;-74
2021/11/08 09:18:15;;;;;;;22.33;8.55;;;7.80;99.90;;;;;;5072441;28;20028;-74
2021/11/08 09:20:43;;;;;;;18.73;9.32;;;7.80;99.90;;;;;;5072174;28;20036;-74
2021/11/08 09:23:11;;;;;;;40.33;15.07;;;7.80;99.90;;;;;;5072471;28;20526;-74
2021/11/08 09:25:37;;;;;;;16.20;7.50;;;7.90;99.90;;;;;;5071011;28;20132;-74
2021/11/08 09:28:05;;;;;;;37.78;13.98;;;7.80;99.80;;;;;;5072090;28;20039;-74
2021/11/08 09:30:36;;;;;;;17.75;6.25;;;7.90;99.90;;;;;;5090335;28;20078;-74
2021/11/08 09:33:02;;;;;;;32.58;11.68;;;7.90;99.90;;;;;;5092017;28;20409;-74
2021/11/08 09:35:33;;;;;;;24.23;7.28;;;7.80;99.90;;;;;;5091197;28;20032;-74
2021/11/08 09:38:05;;;;;;;15.07;5.97;;;7.80;99.30;;;;;;5092486;28;20020;-74
2021/11/08 09:40:31;;;;;;;43.25;13.65;;;7.90;99.40;;;;;;5093876;28;20024;-74
2021/11/08 09:42:58;;;;;;;21.23;9.07;;;8.00;99.90;;;;;;5096106;28;20069;-74
2021/11/08 09:45:24;;;;;;;9.82;4.53;;;7.90;97.80;;;;;;5095950;28;20145;-74
2021/11/08 09:47:51;;;;;;;32.47;14.63;;;7.90;96.20;;;;;;5095956;28;20040;-74
2021/11/08 09:50:21;;;;;;;12.88;6.57;;;8.10;98.00;;;;;;5094713;28;20047;-74
2021/11/08 09:52:48;;;;;;;33.05;11.55;;;8.10;96.00;;;;;;5095958;28;20013;-74
2021/11/08 09:55:19;;;;;;;40.35;15.65;;;8.20;97.20;;;;;;5091063;28;20102;-74
2021/11/08 09:57:46;;;;;;;25.88;10.77;;;8.30;95.50;;;;;;5075600;28;20031;-74
2021/11/08 10:00:25;;;;;;;8.20;4.57;;;8.30;93.40;;;;;;5075508;28;20086;-74
2021/11/08 10:02:54;;;;;;;28.55;8.45;;;8.40;90.00;;;;;;5075514;28;20436;-74
2021/11/08 10:05:23;;;;;;;18.98;6.72;;;8.50;89.70;;;;;;5075401;28;20059;-74
2021/11/08 10:07:50;;;;;;;28.23;10.93;;;8.50;88.70;;;;;;5075369;28;20040;-74
2021/11/08 10:10:15;;;;;;;18.60;6.95;;;8.60;90.80;;;;;;5075306;28;20051;-74
2021/11/08 10:12:42;;;;;;;33.40;13.90;;;8.60;89.00;;;;;;5075279;28;20056;-75
2021/11/08 10:15:09;;;;;;;45.05;15.40;;;8.60;89.40;;;;;;5073613;28;20024;-74
2021/11/08 10:17:34;;;;;;;20.40;8.95;;;8.60;88.60;;;;;;5075001;28;20016;-74
2021/11/08 10:20:00;;;;;;;15.23;6.78;;;8.50;85.80;;;;;;5075194;28;20078;-75
2021/11/08 10:22:27;;;;;;;44.53;15.25;;;8.50;84.00;;;;;;5073895;28;20029;-74
2021/11/08 10:24:58;;;;;;;19.13;7.10;;;8.50;85.80;;;;;;5074694;28;20047;-74
2021/11/08 10:27:23;;;;;;;10.63;4.70;;;8.50;85.60;;;;;;5073737;28;20039;-74
2021/11/08 10:29:50;;;;;;;19.30;7.75;;;8.50;85.00;;;;;;5074906;28;20386;-74
2021/11/08 10:32:16;;;;;;;26.33;8.50;;;8.50;87.10;;;;;;5075036;28;20474;-75
2021/11/08 10:34:52;;;;;;;27.58;8.98;;;8.40;88.30;;;;;;5073537;28;20025;-74
2021/11/08 10:37:26;;;;;;;32.78;11.07;;;8.40;88.20;;;;;;5074011;28;20388;-74
2021/11/08 10:39:53;;;;;;;24.52;9.80;;;8.30;90.00;;;;;;5073547;28;20486;-74
2021/11/08 10:42:27;;;;;;;10.75;5.22;;;8.20;90.90;;;;;;5072127;28;20021;-74
2021/11/08 10:44:53;;;;;;;11.32;5.93;;;8.10;90.20;;;;;;5074694;28;20043;-74
2021/11/08 10:47:22;;;;;;;10.75;5.47;;;8.00;91.30;;;;;;5074626;28;20036;-74
2021/11/08 10:49:48;;;;;;;31.42;12.40;;;7.90;92.70;;;;;;5074591;28;20024;-74
2021/11/08 10:52:18;;;;;;;40.00;14.93;;;7.90;93.60;;;;;;5072523;28;20021;-74
2021/11/08 10:54:54;;;;;;;23.65;8.02;;;7.90;93.70;;;;;;5074424;28;20024;-75
2021/11/08 10:57:23;;;;;;;36.97;26.30;;;7.90;94.70;;;;;;5074540;28;20056;-74
2021/11/08 10:59:52;;;;;;;23.25;18.38;;;7.90;96.20;;;;;;5074379;28;20043;-74
2021/11/08 11:02:25;;;;;;;43.22;34.38;;;7.90;95.60;;;;;;5074348;28;20020;-75
2021/11/08 11:04:56;;;;;;;;;;;7.90;96.70;;;;;;5074969;28;20158;-75
2021/11/08 11:07:34;;;;;;;58.30;30.45;;;7.90;97.90;;;;;;5074248;28;19916;-74
2021/11/08 11:10:13;;;;;;;215.13;89.80;;;7.80;97.30;;;;;;5073082;28;20044;-74
2021/11/08 11:12:46;;;;;;;199.18;89.75;;;7.80;97.00;;;;;;5072776;28;20032;-75
2021/11/08 11:15:23;;;;;;;104.50;48.53;;;7.80;98.00;;;;;;5074188;28;20082;-74
2021/11/08 11:17:55;;;;;;;40.97;20.27;;;7.80;97.70;;;;;;5074012;28;20021;-75
2021/11/08 11:20:24;;;;;;;66.15;33.08;;;7.80;96.80;;;;;;5072712;28;20016;-74
2021/11/08 11:23:15;;;;;;;108.82;55.05;;;7.80;98.00;;;;;;5072598;28;20021;-74
2021/11/08 11:25:49;;;;;;;56.67;22.63;;;7.90;99.80;;;;;;5072592;28;20024;-74
2021/11/08 11:28:25;;;;;;;38.65;15.15;;;7.90;99.20;;;;;;5073839;28;20035;-75
2021/11/08 11:30:51;;;;;;;50.45;25.38;;;7.90;99.90;;;;;;5073732;28;20020;-74
2021/11/08 11:33:21;;;;;;;86.68;41.22;;;7.80;99.90;;;;;;5073742;28;20497;-74
2021/11/08 11:35:50;;;;;;;36.88;16.15;;;7.80;99.90;;;;;;5073663;28;20017;-75
2021/11/08 11:38:24;;;;;;;39.53;20.02;;;7.80;99.90;;;;;;5073706;28;20016;-75
2021/11/08 11:41:03;;;;;;;49.88;27.77;;;7.80;99.90;;;;;;5072311;28;20496;-74
2021/11/08 11:43:34;;;;;;;59.50;25.58;;;7.80;99.90;;;;;;5072289;28;20438;-75
2021/11/08 11:46:00;;;;;;;28.45;15.70;;;7.90;99.90;;;;;;5072282;28;20112;-74
2021/11/08 11:48:29;;;;;;;23.63;13.32;;;8.00;99.90;;;;;;5072074;28;20040;-75
2021/11/08 11:50:55;;;;;;;26.85;16.40;;;8.00;99.90;;;;;;5073352;28;20099;-75
2021/11/08 11:53:23;;;;;;;54.35;24.23;;;8.00;99.90;;;;;;5073407;28;20024;-74
2021/11/08 11:55:49;;;;;;;40.92;22.48;;;8.10;99.90;;;;;;5073278;28;20055;-74
2021/11/08 11:58:16;;;;;;;38.50;21.05;;;8.00;99.90;;;;;;5089021;28;20025;-75
2021/11/08 12:00:44;;;;;;;26.65;15.77;;;8.00;99.90;;;;;;5071884;28;20139;-74
2021/11/08 12:03:11;;;;;;;39.67;21.25;;;7.90;99.90;;;;;;5073207;28;20020;-74
2021/11/08 12:05:37;;;;;;;55.92;28.30;;;7.90;99.90;;;;;;5073131;28;20113;-74
2021/11/08 12:08:08;;;;;;;49.92;27.83;;;7.90;99.90;;;;;;5073130;28;20024;-74
2021/11/08 12:10:42;;;;;;;76.53;30.63;;;7.80;99.90;;;;;;5073599;28;20029;-75
2021/11/08 12:13:16;;;;;;;101.30;50.85;;;7.80;99.90;;;;;;5073173;28;20021;-74
2021/11/08 12:15:42;;;;;;;269.95;129.75;;;7.80;99.90;;;;;;5071750;28;20025;-75
2021/11/08 12:18:11;;;;;;;231.07;87.18;;;7.70;99.90;;;;;;5073099;28;20028;-75
2021/11/08 12:20:47;;;;;;;52.13;26.70;;;7.70;99.90;;;;;;5072968;28;20040;-75
2021/11/08 12:23:22;;;;;;;171.30;69.20;;;7.70;99.90;;;;;;5073135;28;20031;-75
2021/11/08 12:25:50;;;;;;;96.13;41.20;;;7.60;99.90;;;;;;5072871;28;20016;-75
2021/11/08 12:28:21;;;;;;;469.38;191.32;;;7.50;99.90;;;;;;5072915;28;20551;-74
2021/11/08 12:30:50;;;;;;;178.02;66.15;;;7.50;99.90;;;;;;5071536;28;20035;-74
2021/11/08 12:33:28;;;;;;;432.95;175.18;;;7.60;99.90;;;;;;5072865;28;20025;-75
2021/11/08 12:36:18;;;;;;;40.38;19.40;;;7.60;99.90;;;;;;5072818;28;20024;-75
2021/11/08 12:38:55;;;;;;;39.40;21.30;;;7.50;99.90;;;;;;5072903;28;20405;-74
2021/11/08 12:41:28;;;;;;;149.20;49.80;;;7.50;99.90;;;;;;5072774;28;20024;-74
2021/11/08 12:43:57;;;;;;;127.60;44.25;;;7.50;99.90;;;;;;5071476;28;20016;-75
2021/11/08 12:46:32;;;;;;;92.80;41.83;;;7.50;99.90;;;;;;5072665;28;20020;-74
2021/11/08 12:49:15;;;;;;;166.73;53.40;;;7.50;99.90;;;;;;5071389;28;20110;-75
2021/11/08 12:51:53;;;;;;;24.58;12.85;;;7.40;99.90;;;;;;5072738;28;20020;-74
2021/11/08 12:54:19;;;;;;;170.90;65.47;;;7.40;99.90;;;;;;5072637;28;20024;-74
2021/11/08 12:56:46;;;;;;;52.13;22.00;;;7.40;99.90;;;;;;5072527;28;20024;-74
2021/11/08 12:59:27;;;;;;;24.60;12.25;;;7.40;99.90;;;;;;5072628;28;20506;-75
2021/11/08 13:02:10;;;;;;;26.48;13.23;;;7.40;99.90;;;;;;5072645;28;20024;-74
2021/11/08 13:04:47;;;;;;;154.95;62.13;;;7.40;99.90;;;;;;5072546;28;20028;-74
2021/11/08 13:07:15;;;;;;;150.25;44.08;;;7.40;99.90;;;;;;5071151;28;20427;-74
2021/11/08 13:09:47;;;;;;;85.93;26.63;;;7.50;99.90;;;;;;5072285;28;20085;-75
2021/11/08 13:12:22;;;;;;;39.60;17.17;;;7.50;99.90;;;;;;5072659;28;20394;-75
2021/11/08 13:15:07;;;;;;;81.70;28.30;;;7.40;99.90;;;;;;5072898;28;20482;-75
2021/11/08 13:17:50;;;;;;;194.52;77.78;;;7.40;99.90;;;;;;5075056;28;20100;-75
2021/11/08 13:20:19;;;;;;;25.42;15.25;;;7.40;99.90;;;;;;5074583;28;20162;-74
2021/11/08 13:22:49;;;;;;;95.18;29.83;;;7.30;99.90;;;;;;5076163;28;20039;-75
2021/11/08 13:25:21;;;;;;;43.92;20.30;;;7.30;99.90;;;;;;5076177;28;20070;-75
2021/11/08 13:27:50;;;;;;;39.75;20.23;;;7.30;99.90;;;;;;5074818;28;20501;-75
2021/11/08 13:30:22;;;;;;;64.35;26.60;;;7.30;99.90;;;;;;5076065;28;20021;-74
2021/11/08 13:32:51;;;;;;;47.30;21.65;;;7.30;99.90;;;;;;5076079;28;20490;-74
2021/11/08 13:35:25;;;;;;;38.40;18.80;;;7.30;99.90;;;;;;5075973;28;20074;-75
2021/11/08 13:38:04;;;;;;;39.40;17.25;;;7.30;99.90;;;;;;5075929;28;20027;-74
2021/11/08 13:40:31;;;;;;;62.88;26.63;;;7.30;99.90;;;;;;5075802;28;20020;-74
2021/11/08 13:43:10;;;;;;;384.63;147.95;;;7.30;99.90;;;;;;5075873;28;20086;-75
2021/11/08 13:45:45;;;;;;;62.33;19.75;;;7.20;99.90;;;;;;5075679;28;20108;-75
2021/11/08 13:48:42;;;;;;;33.10;15.15;;;7.20;99.90;;;;;;5074442;28;20039;-75
2021/11/08 13:51:19;;;;;;;34.72;15.05;;;7.10;99.90;;;;;;5075717;28;20016;-75
2021/11/08 13:53:50;;;;;;;21.45;12.52;;;7.00;99.90;;;;;;5075743;28;20028;-75
2021/11/08 13:56:16;;;;;;;33.17;16.42;;;7.00;99.90;;;;;;5074384;28;20024;-75
2021/11/08 13:58:53;;;;;;;31.10;14.30;;;6.90;99.90;;;;;;5075629;28;20096;-74
2021/11/08 14:01:21;;;;;;;23.08;13.48;;;6.90;99.90;;;;;;5075581;28;20020;-75
2021/11/08 14:03:49;;;;;;;33.50;15.98;;;6.90;99.90;;;;;;5075483;28;20013;-74
2021/11/08 14:06:26;;;;;;;29.77;13.70;;;6.90;99.90;;;;;;5074099;28;20078;-75
2021/11/08 14:08:51;;;;;;;69.43;33.50;;;6.90;99.90;;;;;;5082646;28;20511;-75
2021/11/08 14:11:41;;;;;;;46.80;20.40;;;7.00;99.90;;;;;;5095258;28;20024;-75
2021/11/08 14:14:10;;;;;;;63.00;22.30;;;7.00;99.90;;;;;;5095273;28;20473;-74
2021/11/08 14:16:38;;;;;;;21.77;12.85;;;7.10;99.90;;;;;;5094864;28;20530;-75
2021/11/08 14:19:05;;;;;;;32.45;20.67;;;7.00;99.90;;;;;;5095312;28;20129;-75
2021/11/08 14:21:31;;;;;;;30.70;18.77;;;7.00;99.90;;;;;;5095119;28;20016;-75
2021/11/08 14:24:06;;;;;;;40.92;25.52;;;7.00;99.90;;;;;;5093996;28;20024;-75
2021/11/08 14:26:33;;;;;;;42.63;20.58;;;7.10;99.90;;;;;;5092747;28;20119;-75
2021/11/08 14:28:59;;;;;;;40.55;20.33;;;7.00;99.90;;;;;;5095203;28;20195;-74
2021/11/08 14:31:33;;;;;;;39.17;21.05;;;7.10;99.90;;;;;;5095098;28;20024;-75
2021/11/08 14:34:03;;;;;;;41.60;20.63;;;7.00;99.90;;;;;;5095227;28;20107;-75
2021/11/08 14:36:33;;;;;;;31.27;15.38;;;7.00;99.90;;;;;;5094136;28;20020;-75
2021/11/08 14:39:04;;;;;;;31.60;15.70;;;7.00;99.90;;;;;;5095056;28;20020;-75
2021/11/08 14:41:34;;;;;;;29.63;15.60;;;7.00;99.90;;;;;;5095075;28;20133;-74
2021/11/08 14:44:04;;;;;;;33.80;16.27;;;7.10;99.90;;;;;;5095006;28;20045;-75
2021/11/08 14:46:36;;;;;;;60.80;29.45;;;7.10;99.90;;;;;;5094563;28;20020;-74
2021/11/08 14:49:20;;;;;;;33.25;19.10;;;7.10;99.90;;;;;;5092786;28;20076;-75